Terminal Aerodrome Forecast
Issued by NWS Twin Cities, MN

Home | Current Version | Previous Version | Text Only | Print | Product List | Glossary On
Versions: 1 2 3 4 5 6 7 8 9 10 11 12 13 14 15 16 17 18 19 20 21 22 23 24 25 26 27
000
FTUS43 KMPX 180900 AAA
TAFMSP
TAF AMD
KMSP 180900Z 1809/1912 11005KT P6SM BKN100
     FM181400 15015KT P6SM SCT025 OVC080 WS020/19055KT
     FM181800 18014G23KT P6SM SCT025 OVC080
     FM182200 20008KT P6SM SCT025 OVC050
     FM190300 33012KT P6SM BKN025 OVC035=

USA.gov is the U.S. government's official web portal to all federal, state and local government web resources and services.